ITY853 DGAA-LIRF

Flight info

Callsign ITY853
Flight time N/A
Altitude 35000
Route LITEX1D LITEX UA603 TAMIL UG855 NY UQ594 DAMNA UY212 EREBO/N0461F360 UA604 TMS/N0452F370 UG855 BOD UG362 EBA UP623 RALAK/N0444F380 DCT PAN DCT MEGAN DCT RONAB DCT ROXAN/N0361F180 M126 ESINO
Aircraft A21N/M-SDE2E3FGHIRWXY/LB1

Departure

Time 2026-04-13 09:11
Airport Kotoka International Airport (DGAA)

Arrival

Time N/A
Airport Rome–Fiumicino Leonardo da Vinci International Airport (LIRF)
Time Latitude Longitude Altitude Speed Heading
2026-04-13 08:29 5.60344 -0.17117 218 ft 0 kts 292°
2026-04-13 09:00 5.60343 -0.17113 218 ft 3 kts 292°
2026-04-13 09:01 5.60333 -0.17088 218 ft 4 kts 292°
2026-04-13 09:01 5.60323 -0.17064 220 ft 4 kts 299°
2026-04-13 09:01 5.60306 -0.17044 219 ft 5 kts 326°
2026-04-13 09:01 5.60283 -0.17035 218 ft 4 kts
2026-04-13 09:02 5.60257 -0.17040 217 ft 4 kts 21°
2026-04-13 09:02 5.60243 -0.17046 217 ft 1 kts 22°
2026-04-13 09:05 5.60256 -0.17040 217 ft 4 kts 22°
2026-04-13 09:05 5.60296 -0.17024 220 ft 8 kts 22°
2026-04-13 09:05 5.60351 -0.17001 224 ft 10 kts 22°
2026-04-13 09:06 5.60418 -0.16973 223 ft 11 kts 22°
2026-04-13 09:06 5.60497 -0.16940 224 ft 13 kts 22°
2026-04-13 09:06 5.60585 -0.16903 226 ft 15 kts 22°
2026-04-13 09:06 5.60682 -0.16863 227 ft 16 kts 22°
2026-04-13 09:07 5.60786 -0.16821 227 ft 17 kts 22°
2026-04-13 09:07 5.60897 -0.16775 228 ft 18 kts 22°
2026-04-13 09:07 5.61012 -0.16728 229 ft 18 kts 22°
2026-04-13 09:07 5.61132 -0.16678 226 ft 19 kts 22°
2026-04-13 09:08 5.61256 -0.16627 225 ft 20 kts 22°
2026-04-13 09:08 5.61384 -0.16574 223 ft 20 kts 22°
2026-04-13 09:08 5.61511 -0.16521 222 ft 20 kts 22°
2026-04-13 09:08 5.61602 -0.16481 220 ft 13 kts 43°
2026-04-13 09:09 5.61615 -0.16398 216 ft 13 kts 107°
2026-04-13 09:09 5.61579 -0.16313 220 ft 8 kts 112°
2026-04-13 09:09 5.61520 -0.16311 223 ft 10 kts 203°
2026-04-13 09:09 5.61503 -0.16318 222 ft 0 kts 200°
2026-04-13 09:10 5.61409 -0.16356 223 ft 44 kts 202°
2026-04-13 09:10 5.60895 -0.16570 228 ft 114 kts 201°
2026-04-13 09:10 5.59969 -0.16952 217 ft 170 kts 202°
2026-04-13 09:10 5.58841 -0.17385 660 ft 173 kts 202°
2026-04-13 09:11 5.57694 -0.17826 1162 ft 175 kts 203°
2026-04-13 09:11 5.56514 -0.18222 1622 ft 189 kts 189°
2026-04-13 09:11 5.55207 -0.17851 1923 ft 213 kts 144°
2026-04-13 09:11 5.54232 -0.16677 2370 ft 228 kts 118°
2026-04-13 09:12 5.53981 -0.15035 2582 ft 255 kts 77°
2026-04-13 09:12 5.54824 -0.13417 2921 ft 273 kts 52°
2026-04-13 09:12 5.55822 -0.11803 3652 ft 275 kts 64°
2026-04-13 09:12 5.56681 -0.10091 4464 ft 274 kts 60°
2026-04-13 09:13 5.57960 -0.08689 5190 ft 276 kts 31°
2026-04-13 09:13 5.59717 -0.07896 5985 ft 277 kts 21°
2026-04-13 09:13 5.61529 -0.07217 6674 ft 279 kts 23°
2026-04-13 09:13 5.63338 -0.06502 7371 ft 280 kts 24°
2026-04-13 09:14 5.65151 -0.05773 8059 ft 281 kts 24°
2026-04-13 09:14 5.66965 -0.05033 8745 ft 282 kts 25°
2026-04-13 09:14 5.68786 -0.04291 9427 ft 283 kts 26°
2026-04-13 09:14 5.70611 -0.03536 10033 ft 286 kts 26°
2026-04-13 09:15 5.72187 -0.02886 10264 ft 299 kts 26°
2026-04-13 09:15 5.73962 -0.02158 10460 ft 314 kts 25°
2026-04-13 09:15 5.76034 -0.01302 10671 ft 330 kts 25°
2026-04-13 09:16 5.78206 -0.00403 10840 ft 345 kts 25°
2026-04-13 09:16 5.80477 0.00534 11028 ft 360 kts 25°
2026-04-13 09:16 5.82817 0.01498 11445 ft 366 kts 25°
2026-04-13 09:16 5.85186 0.02474 11985 ft 369 kts 25°
2026-04-13 09:17 5.87575 0.03459 12528 ft 372 kts 25°
2026-04-13 09:17 5.89163 0.04115 12876 ft 374 kts 25°
2026-04-13 09:17 5.92404 0.05373 13580 ft 380 kts 19°
2026-04-13 09:17 5.94159 0.05752 13904 ft 385 kts
2026-04-13 09:18 5.96855 0.05738 14338 ft 393 kts 354°
2026-04-13 09:18 5.99550 0.05160 14788 ft 398 kts 348°
2026-04-13 09:18 6.02246 0.04463 15245 ft 402 kts 347°
2026-04-13 09:18 6.04960 0.03766 15698 ft 405 kts 348°
2026-04-13 09:19 6.07706 0.03075 16162 ft 408 kts 348°
2026-04-13 09:19 6.10479 0.02393 16606 ft 412 kts 348°
2026-04-13 09:19 6.13273 0.01709 17045 ft 415 kts 347°
2026-04-13 09:19 6.16094 0.01022 17474 ft 419 kts 347°
2026-04-13 09:20 6.18941 0.00331 17892 ft 423 kts 348°
2026-04-13 09:20 6.21812 -0.00369 18303 ft 426 kts 347°
2026-04-13 09:20 6.24701 -0.01076 18678 ft 429 kts 347°
2026-04-13 09:20 6.27615 -0.01792 19022 ft 432 kts 347°
2026-04-13 09:21 6.30544 -0.02507 19397 ft 435 kts 347°
2026-04-13 09:21 6.33490 -0.03225 19770 ft 437 kts 347°
2026-04-13 09:21 6.36457 -0.03947 20120 ft 440 kts 347°
2026-04-13 09:21 6.39438 -0.04672 20475 ft 442 kts 347°
2026-04-13 09:22 6.42438 -0.05404 20841 ft 444 kts 347°
2026-04-13 09:22 6.45452 -0.06140 21183 ft 447 kts 347°
2026-04-13 09:22 6.48481 -0.06880 21510 ft 449 kts 347°
2026-04-13 09:22 6.51528 -0.07624 21843 ft 452 kts 347°
2026-04-13 09:23 6.54594 -0.08372 22175 ft 455 kts 347°
2026-04-13 09:23 6.57679 -0.09127 22509 ft 457 kts 346°
2026-04-13 09:23 6.60778 -0.09884 22853 ft 460 kts 347°
2026-04-13 09:23 6.63930 -0.10443 23173 ft 462 kts 355°
2026-04-13 09:24 6.67147 -0.10480 23476 ft 464 kts
2026-04-13 09:24 6.70374 -0.10323 23742 ft 466 kts
2026-04-13 09:24 6.73573 -0.10144 24009 ft 467 kts
2026-04-13 09:24 6.76870 -0.09965 24280 ft 469 kts
2026-04-13 09:25 6.80094 -0.09798 24548 ft 471 kts
2026-04-13 09:25 6.83374 -0.09633 24814 ft 473 kts
2026-04-13 09:25 6.86667 -0.09471 25063 ft 475 kts
2026-04-13 09:25 6.89977 -0.09308 25314 ft 477 kts
2026-04-13 09:26 6.93300 -0.09145 25580 ft 479 kts
2026-04-13 09:26 6.96638 -0.08983 25844 ft 481 kts
2026-04-13 09:26 6.99988 -0.08820 26107 ft 483 kts
2026-04-13 09:26 7.03352 -0.08654 26359 ft 485 kts
2026-04-13 09:27 7.06727 -0.08490 26603 ft 486 kts
2026-04-13 09:27 7.10115 -0.08324 26845 ft 488 kts
2026-04-13 09:27 7.13508 -0.08156 27097 ft 489 kts
2026-04-13 09:27 7.16910 -0.07990 27397 ft 489 kts
2026-04-13 09:28 7.20300 -0.07823 27722 ft 488 kts
2026-04-13 09:28 7.23690 -0.07656 28040 ft 487 kts
2026-04-13 09:28 7.27071 -0.07489 28341 ft 487 kts
2026-04-13 09:28 7.30456 -0.07322 28642 ft 486 kts
2026-04-13 09:29 7.33833 -0.07157 28944 ft 486 kts
2026-04-13 09:29 7.37203 -0.06991 29235 ft 485 kts
2026-04-13 09:29 7.40571 -0.06825 29526 ft 485 kts
2026-04-13 09:29 7.43937 -0.06658 29814 ft 484 kts
2026-04-13 09:30 7.47301 -0.06491 30079 ft 483 kts
2026-04-13 09:30 7.50654 -0.06325 30322 ft 483 kts
2026-04-13 09:30 7.54009 -0.06159 30561 ft 482 kts
2026-04-13 09:30 7.57356 -0.05994 30804 ft 481 kts
2026-04-13 09:31 7.60696 -0.05829 31041 ft 480 kts
2026-04-13 09:31 7.64031 -0.05666 31266 ft 479 kts
2026-04-13 09:31 7.67358 -0.05503 31488 ft 479 kts
2026-04-13 09:31 7.70683 -0.05340 31719 ft 478 kts
2026-04-13 09:32 7.73960 -0.05177 31920 ft 477 kts
2026-04-13 09:32 7.77318 -0.05012 32122 ft 477 kts
2026-04-13 09:32 7.80594 -0.04850 32284 ft 478 kts
2026-04-13 09:32 7.83911 -0.04686 32517 ft 477 kts
2026-04-13 09:33 7.87226 -0.04521 32738 ft 476 kts
2026-04-13 09:33 7.90529 -0.04357 32942 ft 475 kts
2026-04-13 09:33 7.93828 -0.04193 33150 ft 474 kts
2026-04-13 09:34 8.00418 -0.03866 33465 ft 474 kts
2026-04-13 09:34 8.03715 -0.03702 33589 ft 475 kts
2026-04-13 09:34 8.07021 -0.03537 33769 ft 475 kts
2026-04-13 09:34 8.10322 -0.03375 33908 ft 475 kts
2026-04-13 09:35 8.13622 -0.03210 34061 ft 474 kts
2026-04-13 09:35 8.16913 -0.03046 34210 ft 474 kts
2026-04-13 09:35 8.20208 -0.02879 34331 ft 474 kts
2026-04-13 09:35 8.23497 -0.02715 34465 ft 474 kts
2026-04-13 09:36 8.26791 -0.02550 34573 ft 474 kts
2026-04-13 09:36 8.30080 -0.02386 34700 ft 473 kts
2026-04-13 09:36 8.33371 -0.02225 34801 ft 473 kts
2026-04-13 09:36 8.36658 -0.02063 34878 ft 474 kts
2026-04-13 09:37 8.43250 -0.01738 34866 ft 474 kts
2026-04-13 09:37 8.49840 -0.01411 34850 ft 474 kts
2026-04-13 09:38 8.56431 -0.01084 34848 ft 475 kts
2026-04-13 09:38 8.63023 -0.00759 34848 ft 475 kts
2026-04-13 09:39 8.69624 -0.00728 34846 ft 474 kts 359°
2026-04-13 09:39 8.76173 -0.00783 34848 ft 473 kts 358°
2026-04-13 09:40 8.82754 -0.00832 34846 ft 473 kts 358°
2026-04-13 09:40 8.89335 -0.00899 34846 ft 473 kts 358°
2026-04-13 09:41 8.95916 -0.00960 34848 ft 473 kts 358°
2026-04-13 09:42 9.05791 -0.01032 34845 ft 473 kts 358°
2026-04-13 09:42 9.12365 -0.01095 34845 ft 472 kts 358°
2026-04-13 09:43 9.18941 -0.01154 34846 ft 472 kts 358°
2026-04-13 09:43 9.25512 -0.01215 34844 ft 472 kts 358°
2026-04-13 09:44 9.32093 -0.01276 34841 ft 472 kts 358°
2026-04-13 09:44 9.38667 -0.01342 34844 ft 473 kts 358°
2026-04-13 09:45 9.45243 -0.01403 34846 ft 473 kts 358°
2026-04-13 09:45 9.51815 -0.01462 34846 ft 472 kts 358°
2026-04-13 09:46 9.58380 -0.01525 34845 ft 472 kts 358°
2026-04-13 09:46 9.64944 -0.01585 34847 ft 472 kts 358°
2026-04-13 09:47 9.71514 -0.01647 34850 ft 472 kts 358°
2026-04-13 09:47 9.78080 -0.01712 34850 ft 472 kts 358°
2026-04-13 09:48 9.84646 -0.01776 34848 ft 471 kts 357°
2026-04-13 09:48 9.91165 -0.01835 34848 ft 468 kts 358°
2026-04-13 09:49 9.97678 -0.01896 34850 ft 468 kts 357°
2026-04-13 09:49 10.04146 -0.01952 34850 ft 468 kts 358°
2026-04-13 09:50 10.10660 -0.02009 34849 ft 468 kts 358°
2026-04-13 09:50 10.17169 -0.02072 34852 ft 468 kts 357°
2026-04-13 09:51 10.23680 -0.02131 34853 ft 467 kts 358°
2026-04-13 09:51 10.30176 -0.02193 34858 ft 467 kts 358°
2026-04-13 09:52 10.36674 -0.02257 34858 ft 467 kts 358°
2026-04-13 09:52 10.43169 -0.02318 34865 ft 467 kts 358°
2026-04-13 09:53 10.49671 -0.02378 34863 ft 467 kts 358°
2026-04-13 09:53 10.56166 -0.02439 34864 ft 467 kts 358°
2026-04-13 09:54 10.62639 -0.01733 34861 ft 474 kts 16°
2026-04-13 09:54 10.65675 -0.00409 34864 ft 477 kts 29°
2026-04-13 09:54 10.68351 0.01574 34861 ft 478 kts 41°
2026-04-13 09:55 10.73129 0.06285 34866 ft 478 kts 44°
2026-04-13 09:55 10.77893 0.10994 34865 ft 478 kts 43°
2026-04-13 09:56 10.82700 0.15662 34861 ft 477 kts 43°
2026-04-13 09:56 10.87499 0.20328 34866 ft 477 kts 43°
2026-04-13 09:57 10.92294 0.24999 34865 ft 478 kts 43°
2026-04-13 09:57 10.97101 0.29678 34865 ft 478 kts 43°
2026-04-13 09:58 11.02108 0.34103 34859 ft 477 kts 36°
2026-04-13 09:58 11.07421 0.38071 34859 ft 477 kts 35°
2026-04-13 09:59 11.12760 0.42062 34857 ft 476 kts 36°
2026-04-13 09:59 11.18091 0.46060 34855 ft 476 kts 36°
2026-04-13 10:00 11.23422 0.50056 34857 ft 476 kts 36°
2026-04-13 10:00 11.28757 0.54059 34858 ft 476 kts 36°
2026-04-13 10:01 11.34105 0.58075 34858 ft 479 kts 35°
2026-04-13 10:01 11.39473 0.62107 34844 ft 479 kts 35°
2026-04-13 10:02 11.44844 0.66145 34843 ft 480 kts 35°
2026-04-13 10:02 11.50210 0.70183 34845 ft 480 kts 35°
2026-04-13 10:03 11.55581 0.74219 34849 ft 480 kts 35°
2026-04-13 10:03 11.60942 0.78260 34841 ft 477 kts 35°
2026-04-13 10:04 11.66278 0.82282 34842 ft 477 kts 35°
2026-04-13 10:04 11.71633 0.86321 34842 ft 480 kts 35°
2026-04-13 10:05 11.77009 0.90367 34841 ft 480 kts 35°
2026-04-13 10:05 11.82379 0.94426 34835 ft 480 kts 35°
2026-04-13 10:06 11.86848 0.97796 34837 ft 480 kts 35°
2026-04-13 10:06 11.92221 1.01853 34836 ft 480 kts 35°
2026-04-13 10:07 11.97591 1.05911 34843 ft 480 kts 35°
2026-04-13 10:07 12.02963 1.09969 34836 ft 480 kts 35°
2026-04-13 10:08 12.08342 1.14046 34831 ft 482 kts 34°
2026-04-13 10:08 12.13716 1.18121 34834 ft 480 kts 35°
2026-04-13 10:09 12.19085 1.22195 34831 ft 480 kts 34°
2026-04-13 10:09 12.24456 1.26259 34823 ft 480 kts 34°
2026-04-13 10:10 12.29824 1.30336 34825 ft 480 kts 34°
2026-04-13 10:10 12.35186 1.34412 34819 ft 480 kts 35°
2026-04-13 10:11 12.40549 1.38491 34821 ft 480 kts 34°
2026-04-13 10:11 12.45928 1.42580 34819 ft 482 kts 34°
2026-04-13 10:12 12.51310 1.46674 34818 ft 482 kts 34°
2026-04-13 10:12 12.56695 1.50760 34811 ft 482 kts 34°
2026-04-13 10:13 12.62037 1.54825 34806 ft 480 kts 34°
2026-04-13 10:13 12.67387 1.58901 34799 ft 480 kts 34°
2026-04-13 10:14 12.72743 1.62977 34805 ft 480 kts 34°
2026-04-13 10:14 12.78097 1.67066 34804 ft 481 kts 34°
2026-04-13 10:15 12.83475 1.71168 34804 ft 482 kts 34°
2026-04-13 10:15 12.88851 1.75284 34801 ft 482 kts 34°
2026-04-13 10:16 12.94235 1.79393 34806 ft 482 kts 34°
2026-04-13 10:16 12.99613 1.83505 34798 ft 482 kts 34°
2026-04-13 10:17 13.04991 1.87619 34792 ft 482 kts 34°
2026-04-13 10:17 13.10369 1.91734 34800 ft 482 kts 34°
2026-04-13 10:18 13.15732 1.95844 34795 ft 483 kts 34°
2026-04-13 10:18 13.21124 1.99977 34796 ft 484 kts 34°
2026-04-13 10:19 13.26519 2.04113 34794 ft 484 kts 34°
2026-04-13 10:19 13.31914 2.08255 34793 ft 484 kts 34°
2026-04-13 10:20 13.37313 2.12392 34813 ft 484 kts 34°
2026-04-13 10:20 13.42705 2.16529 34815 ft 484 kts 34°
2026-04-13 10:21 13.47924 2.20908 34818 ft 487 kts 45°
2026-04-13 10:21 13.51886 2.26604 34815 ft 492 kts 56°
2026-04-13 10:22 13.55529 2.32554 34808 ft 490 kts 56°
2026-04-13 10:22 13.59195 2.38462 34804 ft 490 kts 56°
2026-04-13 10:23 13.62877 2.44365 34796 ft 490 kts 56°
2026-04-13 10:23 13.66556 2.50270 34794 ft 491 kts 56°
2026-04-13 10:24 13.70239 2.56179 34795 ft 491 kts 56°
2026-04-13 10:24 13.73916 2.62087 34788 ft 491 kts 56°
2026-04-13 10:25 13.77591 2.68000 34793 ft 490 kts 56°
2026-04-13 10:25 13.81247 2.73881 34793 ft 488 kts 56°
2026-04-13 10:26 13.84876 2.79727 34797 ft 489 kts 56°
2026-04-13 10:26 13.88548 2.85649 34799 ft 492 kts 56°
2026-04-13 10:27 13.92223 2.91583 34793 ft 492 kts 56°
2026-04-13 10:27 13.95899 2.97516 34795 ft 492 kts 56°
2026-04-13 10:28 13.99575 3.03456 34794 ft 491 kts 56°
2026-04-13 10:28 14.03245 3.09385 34792 ft 490 kts 56°
2026-04-13 10:29 14.06906 3.15307 34795 ft 490 kts 56°
2026-04-13 10:29 14.10563 3.21230 34790 ft 490 kts 56°
2026-04-13 10:30 14.14223 3.27159 34793 ft 490 kts 56°
2026-04-13 10:30 14.17876 3.33086 34793 ft 490 kts 56°
2026-04-13 10:31 14.21540 3.39033 34788 ft 494 kts 56°
2026-04-13 10:31 14.25224 3.45010 34787 ft 494 kts 56°
2026-04-13 10:32 14.28905 3.51000 34785 ft 494 kts 56°
2026-04-13 10:32 14.32577 3.56995 34785 ft 494 kts 56°
2026-04-13 10:33 14.36249 3.62991 34781 ft 494 kts 56°
2026-04-13 10:33 14.39918 3.68988 34782 ft 494 kts 56°
2026-04-13 10:34 14.45423 3.77986 34780 ft 494 kts 56°
2026-04-13 10:34 14.49087 3.83984 34777 ft 493 kts 56°
2026-04-13 10:35 14.52739 3.89968 34777 ft 493 kts 56°
2026-04-13 10:35 14.56380 3.95960 34778 ft 493 kts 56°
2026-04-13 10:36 14.60017 4.01953 34777 ft 493 kts 56°
2026-04-13 10:36 14.63636 4.07904 34773 ft 493 kts 56°
2026-04-13 10:37 14.67288 4.13891 34776 ft 493 kts 56°
2026-04-13 10:37 14.70935 4.19886 34773 ft 493 kts 56°
2026-04-13 10:38 14.74576 4.25879 34780 ft 492 kts 55°
2026-04-13 10:38 14.78217 4.31871 34780 ft 492 kts 56°
2026-04-13 10:39 14.81853 4.37868 34774 ft 492 kts 56°
2026-04-13 10:39 14.85487 4.43865 34778 ft 492 kts 56°
2026-04-13 10:40 14.89129 4.49865 34786 ft 494 kts 56°
2026-04-13 10:40 14.93003 4.55727 34780 ft 492 kts 45°
2026-04-13 10:41 14.95497 4.58110 34773 ft 486 kts 32°
2026-04-13 10:41 14.98356 4.59901 34779 ft 477 kts 20°
2026-04-13 10:41 15.04531 4.62292 34781 ft 473 kts 14°
2026-04-13 10:42 15.10736 4.64571 34778 ft 474 kts 15°
2026-04-13 10:42 15.16928 4.66913 34778 ft 474 kts 15°
2026-04-13 10:43 15.23112 4.69263 34777 ft 474 kts 15°
2026-04-13 10:43 15.29323 4.71621 34782 ft 476 kts 14°
2026-04-13 10:44 15.35539 4.74000 34779 ft 476 kts 15°
2026-04-13 10:44 15.41766 4.76360 34779 ft 476 kts 15°
2026-04-13 10:45 15.47947 4.78711 34777 ft 476 kts 15°
2026-04-13 10:45 15.54169 4.81075 34777 ft 476 kts 15°
2026-04-13 10:46 15.60394 4.83448 34776 ft 478 kts 15°
2026-04-13 10:46 15.66646 4.85830 34774 ft 479 kts 15°
2026-04-13 10:47 15.72914 4.88223 34777 ft 479 kts 15°
2026-04-13 10:47 15.79174 4.90613 34776 ft 479 kts 15°
2026-04-13 10:48 15.85436 4.93005 34774 ft 480 kts 15°
2026-04-13 10:48 15.91696 4.95399 34774 ft 480 kts 15°
2026-04-13 10:49 15.97950 4.97791 34777 ft 479 kts 15°
2026-04-13 10:49 16.04211 5.00192 34780 ft 480 kts 15°
2026-04-13 10:50 16.10476 5.02590 34778 ft 480 kts 15°
2026-04-13 10:50 16.16738 5.04993 34776 ft 480 kts 15°
2026-04-13 10:51 16.23003 5.07392 34779 ft 480 kts 15°
2026-04-13 10:51 16.29268 5.09799 34790 ft 480 kts 15°
2026-04-13 10:52 16.35541 5.12204 34785 ft 481 kts 14°
2026-04-13 10:52 16.40760 5.14210 34777 ft 481 kts 14°
2026-04-13 10:53 16.47043 5.16626 34778 ft 481 kts 14°
2026-04-13 10:53 16.53320 5.19046 34780 ft 481 kts 14°
2026-04-13 10:54 16.59601 5.21461 34774 ft 481 kts 14°
2026-04-13 10:54 16.65883 5.23883 34784 ft 481 kts 14°
2026-04-13 10:55 16.72168 5.26305 34777 ft 481 kts 14°
2026-04-13 10:55 16.78450 5.28734 34772 ft 482 kts 14°
2026-04-13 10:56 16.84731 5.31160 34764 ft 481 kts 14°
2026-04-13 10:56 16.91013 5.33584 34782 ft 481 kts 14°
2026-04-13 10:57 16.97269 5.36004 34767 ft 479 kts 14°
2026-04-13 10:57 17.03510 5.38417 34773 ft 482 kts 14°
2026-04-13 10:58 17.09799 5.40855 34772 ft 483 kts 14°
2026-04-13 10:58 17.16098 5.43296 34771 ft 483 kts 14°
2026-04-13 10:59 17.22393 5.45736 34770 ft 483 kts 14°
2026-04-13 10:59 17.28690 5.48182 34769 ft 483 kts 14°
2026-04-13 11:00 17.34996 5.50630 34779 ft 485 kts 14°
2026-04-13 11:00 17.41321 5.53089 34775 ft 485 kts 14°
2026-04-13 11:01 17.47651 5.55551 34773 ft 485 kts 14°
2026-04-13 11:01 17.53971 5.58014 34774 ft 485 kts 14°
2026-04-13 11:02 17.60295 5.60479 34769 ft 485 kts 14°
2026-04-13 11:02 17.66619 5.62942 34782 ft 485 kts 14°
2026-04-13 11:03 17.72953 5.65411 34774 ft 486 kts 14°
2026-04-13 11:03 17.79289 5.67887 34773 ft 486 kts 14°
2026-04-13 11:04 17.85630 5.70365 34770 ft 486 kts 14°
2026-04-13 11:04 17.91964 5.72842 34770 ft 484 kts 14°
2026-04-13 11:05 17.98276 5.75312 34769 ft 484 kts 14°
2026-04-13 11:05 18.04590 5.77794 34770 ft 485 kts 14°
2026-04-13 11:06 18.10902 5.80279 34770 ft 485 kts 14°
2026-04-13 11:06 18.17218 5.82764 34770 ft 484 kts 14°
2026-04-13 11:07 18.23535 5.85240 34767 ft 484 kts 14°
2026-04-13 11:07 18.29809 5.87701 34767 ft 484 kts 14°
2026-04-13 11:08 18.36127 5.90182 34776 ft 486 kts 14°
2026-04-13 11:08 18.42471 5.92679 34771 ft 487 kts 14°
2026-04-13 11:09 18.48813 5.95188 34770 ft 487 kts 14°
2026-04-13 11:09 18.55164 5.97674 34770 ft 487 kts 14°
2026-04-13 11:10 18.61511 6.00180 34770 ft 487 kts 14°
2026-04-13 11:10 18.67853 6.02694 34769 ft 487 kts 14°
2026-04-13 11:11 18.74204 6.05194 34771 ft 487 kts 13°
2026-04-13 11:11 18.80555 6.07699 34774 ft 487 kts 14°
2026-04-13 11:12 18.86903 6.10212 34772 ft 487 kts 14°
2026-04-13 11:12 18.93252 6.12722 34774 ft 487 kts 14°
2026-04-13 11:13 18.99598 6.15231 34777 ft 487 kts 14°
2026-04-13 11:13 19.05948 6.17752 34782 ft 488 kts 14°
2026-04-13 11:14 19.12311 6.20279 34774 ft 489 kts 14°
2026-04-13 11:14 19.18677 6.22807 34777 ft 488 kts 14°
2026-04-13 11:15 19.25035 6.25345 34778 ft 489 kts 14°
2026-04-13 11:15 19.31395 6.27896 34779 ft 488 kts 14°
2026-04-13 11:16 19.37764 6.30410 34790 ft 489 kts 13°
2026-04-13 11:16 19.44144 6.32945 34786 ft 490 kts 13°
2026-04-13 11:17 19.50528 6.35493 34785 ft 490 kts 14°
2026-04-13 11:17 19.56911 6.38043 34790 ft 490 kts 14°
2026-04-13 11:18 19.63296 6.40597 34785 ft 490 kts 14°
2026-04-13 11:18 19.69639 6.43132 34805 ft 490 kts 13°
2026-04-13 11:19 19.76020 6.45688 34791 ft 490 kts 13°
2026-04-13 11:19 19.82407 6.48246 34791 ft 491 kts 13°
2026-04-13 11:20 19.88806 6.50813 34790 ft 492 kts 13°
2026-04-13 11:20 19.95204 6.53384 34797 ft 492 kts 13°
2026-04-13 11:21 20.01607 6.55956 34813 ft 492 kts 13°
2026-04-13 11:21 20.08054 6.58299 34791 ft 482 kts
2026-04-13 11:22 20.11332 6.58729 34795 ft 468 kts 352°
2026-04-13 11:22 20.14526 6.58492 34794 ft 454 kts 341°
2026-04-13 11:22 20.17528 6.57643 34795 ft 441 kts 331°
2026-04-13 11:22 20.20375 6.56456 34798 ft 438 kts 329°
2026-04-13 11:23 20.26023 6.54001 34793 ft 439 kts 329°
2026-04-13 11:23 20.31692 6.51593 34793 ft 439 kts 329°
2026-04-13 11:24 20.37378 6.49195 34813 ft 442 kts 328°
2026-04-13 11:24 20.43125 6.46765 34801 ft 445 kts 329°
2026-04-13 11:25 20.48897 6.44338 34793 ft 446 kts 329°
2026-04-13 11:25 20.54655 6.41883 34798 ft 446 kts 329°
2026-04-13 11:26 20.60425 6.39438 34793 ft 446 kts 329°
2026-04-13 11:26 20.66194 6.36996 34799 ft 446 kts 329°
2026-04-13 11:27 20.71922 6.34567 34814 ft 444 kts 328°
2026-04-13 11:27 20.77658 6.32134 34799 ft 444 kts 328°
2026-04-13 11:28 20.83396 6.29701 34799 ft 444 kts 328°
2026-04-13 11:28 20.89135 6.27264 34798 ft 444 kts 328°
2026-04-13 11:29 20.94876 6.24824 34792 ft 444 kts 328°
2026-04-13 11:29 21.00616 6.22382 34795 ft 444 kts 328°
2026-04-13 11:30 21.06338 6.19946 34807 ft 440 kts 328°
2026-04-13 11:30 21.12030 6.17521 34795 ft 440 kts 328°
2026-04-13 11:31 21.17723 6.15091 34792 ft 440 kts 328°
2026-04-13 11:31 21.23415 6.12661 34791 ft 440 kts 328°
2026-04-13 11:32 21.29108 6.10230 34787 ft 440 kts 328°
2026-04-13 11:32 21.34796 6.07796 34788 ft 440 kts 328°
2026-04-13 11:33 21.40481 6.05363 34784 ft 440 kts 328°
2026-04-13 11:34 21.49005 6.01709 34783 ft 440 kts 328°
2026-04-13 11:34 21.54685 5.99275 34780 ft 440 kts 327°
2026-04-13 11:35 21.60363 5.96838 34781 ft 439 kts 327°
2026-04-13 11:35 21.66041 5.94400 34783 ft 439 kts 327°
2026-04-13 11:36 21.71710 5.91963 34809 ft 436 kts 327°
2026-04-13 11:36 21.77321 5.89535 34794 ft 435 kts 327°
2026-04-13 11:37 21.82929 5.87105 34792 ft 435 kts 327°
2026-04-13 11:37 21.88554 5.84687 34792 ft 435 kts 327°
2026-04-13 11:38 21.94175 5.82270 34792 ft 435 kts 327°
2026-04-13 11:38 21.99791 5.79848 34802 ft 435 kts 327°
2026-04-13 11:39 22.05401 5.77434 34823 ft 432 kts 327°
2026-04-13 11:39 22.10958 5.75033 34820 ft 430 kts 326°
2026-04-13 11:40 22.16475 5.72647 34818 ft 430 kts 326°
2026-04-13 11:40 22.22025 5.70237 34819 ft 430 kts 326°
2026-04-13 11:41 22.27577 5.67823 34823 ft 430 kts 326°
2026-04-13 11:41 22.32238 5.65794 34826 ft 431 kts 326°
2026-04-13 11:42 22.37747 5.63382 34863 ft 429 kts 326°
2026-04-13 11:42 22.43288 5.60965 34847 ft 430 kts 326°
2026-04-13 11:43 22.48840 5.58567 34843 ft 429 kts 326°
2026-04-13 11:43 22.54383 5.56161 34913 ft 429 kts 326°
2026-04-13 11:44 22.59924 5.53750 34962 ft 429 kts 326°
2026-04-13 11:44 22.65458 5.51335 35023 ft 429 kts 326°
2026-04-13 11:45 22.70988 5.48925 35098 ft 427 kts 325°
2026-04-13 11:45 22.76506 5.46550 35087 ft 430 kts 328°
2026-04-13 11:45 22.79442 5.45694 35080 ft 446 kts 337°
2026-04-13 11:46 22.82604 5.45416 35078 ft 467 kts 348°
2026-04-13 11:46 22.85895 5.45812 35086 ft 485 kts 359°
2026-04-13 11:46 22.89210 5.46656 35092 ft 492 kts
2026-04-13 11:47 22.95833 5.48498 35046 ft 491 kts
2026-04-13 11:47 23.02470 5.50193 35048 ft 489 kts
2026-04-13 11:48 23.09075 5.51867 34975 ft 487 kts
2026-04-13 11:48 23.15674 5.53552 34926 ft 487 kts
2026-04-13 11:49 23.22274 5.55217 34919 ft 487 kts
2026-04-13 11:49 23.28863 5.56867 34908 ft 486 kts
2026-04-13 11:50 23.35463 5.58552 34945 ft 487 kts
2026-04-13 11:50 23.42046 5.60229 34901 ft 486 kts 360°
2026-04-13 11:51 23.48628 5.61887 34898 ft 485 kts 360°
2026-04-13 11:51 23.55209 5.63557 34886 ft 486 kts 360°
2026-04-13 11:52 23.61784 5.65239 34881 ft 486 kts
2026-04-13 11:52 23.68382 5.66922 34880 ft 489 kts 360°
2026-04-13 11:53 23.75021 5.68621 34859 ft 490 kts 360°
2026-04-13 11:53 23.81624 5.70320 34847 ft 491 kts
2026-04-13 11:54 23.88301 5.72034 34837 ft 488 kts
2026-04-13 11:54 23.94858 5.73727 34831 ft 487 kts 360°
2026-04-13 11:55 24.01518 5.75431 34849 ft 490 kts 360°
2026-04-13 11:55 24.08115 5.77125 34824 ft 490 kts 360°
2026-04-13 11:56 24.14756 5.78833 34812 ft 490 kts 360°
2026-04-13 11:56 24.21395 5.80550 34801 ft 490 kts
2026-04-13 11:57 24.28037 5.82287 34851 ft 491 kts 360°
2026-04-13 11:57 24.34680 5.84005 34817 ft 490 kts 359°
2026-04-13 11:58 24.41326 5.85715 34775 ft 491 kts 360°
2026-04-13 11:58 24.47996 5.87443 34773 ft 491 kts 359°
2026-04-13 11:59 24.54634 5.89185 34777 ft 490 kts 359°
2026-04-13 11:59 24.61276 5.90913 34781 ft 491 kts 359°
2026-04-13 12:00 24.67929 5.92639 34769 ft 493 kts
2026-04-13 12:00 24.74594 5.94356 34775 ft 491 kts 359°
2026-04-13 12:01 24.80800 5.95977 34759 ft 491 kts 359°
2026-04-13 12:01 24.87443 5.97690 34759 ft 490 kts 359°
2026-04-13 12:02 24.94113 5.99424 34784 ft 494 kts 359°
2026-04-13 12:02 25.00810 6.01175 34768 ft 495 kts 359°
2026-04-13 12:03 25.07511 6.02928 34769 ft 495 kts 359°
2026-04-13 12:03 25.14209 6.04683 34774 ft 494 kts 359°
2026-04-13 12:04 25.20904 6.06439 34811 ft 495 kts 359°
2026-04-13 12:04 25.27604 6.08197 34779 ft 495 kts 359°
2026-04-13 12:05 25.34312 6.09959 34781 ft 496 kts 359°
2026-04-13 12:05 25.40972 6.11713 34784 ft 495 kts 359°
2026-04-13 12:06 25.47666 6.13477 34786 ft 495 kts 359°
2026-04-13 12:06 25.54365 6.15241 34808 ft 497 kts 359°
2026-04-13 12:07 25.61103 6.17020 34796 ft 498 kts 359°
2026-04-13 12:07 25.67844 6.18803 34787 ft 498 kts 359°
2026-04-13 12:08 25.74578 6.20587 34786 ft 497 kts 359°
2026-04-13 12:08 25.81309 6.22368 34797 ft 497 kts 359°
2026-04-13 12:09 25.88067 6.24158 34807 ft 500 kts 359°
2026-04-13 12:09 25.94846 6.25961 34803 ft 501 kts 359°
2026-04-13 12:10 26.01635 6.27765 34809 ft 501 kts 359°
2026-04-13 12:10 26.08412 6.29528 34801 ft 500 kts 359°
2026-04-13 12:11 26.15188 6.31287 34835 ft 501 kts 359°
2026-04-13 12:11 26.21989 6.33062 34812 ft 503 kts 359°
2026-04-13 12:12 26.28798 6.34844 34808 ft 502 kts 359°
2026-04-13 12:12 26.35597 6.36623 34804 ft 501 kts 359°
2026-04-13 12:13 26.42341 6.38391 34854 ft 501 kts 359°
2026-04-13 12:13 26.49165 6.40175 34813 ft 506 kts 359°
2026-04-13 12:14 26.56034 6.41981 34801 ft 507 kts 359°
2026-04-13 12:14 26.62907 6.43791 34802 ft 507 kts 359°
2026-04-13 12:15 26.69780 6.45600 34802 ft 507 kts 359°
2026-04-13 12:15 26.76649 6.47411 34827 ft 508 kts 360°
2026-04-13 12:16 26.83539 6.49229 34811 ft 509 kts 360°
2026-04-13 12:16 26.90439 6.51054 34811 ft 510 kts 360°
2026-04-13 12:17 26.97341 6.52881 34818 ft 509 kts 360°
2026-04-13 12:17 27.04239 6.54707 34852 ft 510 kts 360°
2026-04-13 12:18 27.11160 6.56542 34829 ft 512 kts
2026-04-13 12:18 27.18097 6.58384 34800 ft 513 kts
2026-04-13 12:19 27.25038 6.60232 34814 ft 512 kts
2026-04-13 12:19 27.31967 6.62076 34862 ft 512 kts
2026-04-13 12:20 27.38909 6.63927 34829 ft 513 kts
2026-04-13 12:20 27.45856 6.65782 34825 ft 513 kts
2026-04-13 12:21 27.52762 6.67627 34823 ft 514 kts
2026-04-13 12:21 27.59715 6.69488 34821 ft 514 kts
2026-04-13 12:22 27.66671 6.71353 34817 ft 514 kts
2026-04-13 12:22 27.73629 6.73220 34821 ft 514 kts
2026-04-13 12:23 27.80586 6.75089 34823 ft 514 kts
2026-04-13 12:23 27.87545 6.76965 34821 ft 513 kts
2026-04-13 12:24 27.94491 6.78835 34841 ft 513 kts
2026-04-13 12:24 28.01434 6.80706 34830 ft 513 kts
2026-04-13 12:25 28.08381 6.82583 34832 ft 514 kts
2026-04-13 12:25 28.15265 6.85170 34817 ft 539 kts 17°
2026-04-13 12:26 28.21816 6.89449 34863 ft 543 kts 21°
2026-04-13 12:26 28.28304 6.93807 34832 ft 541 kts 21°
2026-04-13 12:27 28.34811 6.98109 34825 ft 541 kts 21°
2026-04-13 12:27 28.44572 7.04567 34824 ft 542 kts 21°
2026-04-13 12:28 28.49979 7.08156 34860 ft 541 kts 21°
2026-04-13 12:28 28.56462 7.12462 34834 ft 539 kts 21°
2026-04-13 12:29 28.62942 7.16771 34828 ft 539 kts 21°
2026-04-13 12:29 28.69410 7.21081 34826 ft 539 kts 21°
2026-04-13 12:30 28.75882 7.25394 34828 ft 539 kts 21°
2026-04-13 12:30 28.82339 7.29712 34851 ft 537 kts 21°
2026-04-13 12:31 28.88787 7.34024 34829 ft 537 kts 21°
2026-04-13 12:31 28.95227 7.38338 34827 ft 537 kts 21°
2026-04-13 12:32 29.01668 7.42660 34825 ft 537 kts 21°
2026-04-13 12:32 29.08107 7.46987 34848 ft 536 kts 21°
2026-04-13 12:33 29.14534 7.51312 34829 ft 536 kts 21°
2026-04-13 12:33 29.20959 7.55641 34824 ft 536 kts 21°
2026-04-13 12:34 29.27383 7.59974 34795 ft 536 kts 22°
2026-04-13 12:34 29.33760 7.64285 34850 ft 536 kts 22°
2026-04-13 12:35 29.40178 7.68634 34829 ft 536 kts 22°
2026-04-13 12:35 29.46591 7.72979 34818 ft 535 kts 22°
2026-04-13 12:36 29.53008 7.77320 34819 ft 535 kts 21°
2026-04-13 12:36 29.59442 7.81638 34818 ft 536 kts 21°
2026-04-13 12:37 29.65870 7.85966 34836 ft 535 kts 22°
2026-04-13 12:37 29.72300 7.90305 34812 ft 536 kts 22°
2026-04-13 12:38 29.78728 7.94646 34815 ft 536 kts 22°
2026-04-13 12:38 29.85153 7.98992 34790 ft 535 kts 22°
2026-04-13 12:39 29.91580 8.03327 34827 ft 536 kts 22°
2026-04-13 12:39 29.98010 8.07672 34814 ft 536 kts 22°
2026-04-13 12:40 30.04425 8.12021 34805 ft 534 kts 22°
2026-04-13 12:40 30.10841 8.16359 34810 ft 534 kts 22°
2026-04-13 12:41 30.17259 8.20697 34840 ft 534 kts 22°
2026-04-13 12:41 30.23683 8.25051 34817 ft 535 kts 22°
2026-04-13 12:42 30.30107 8.29406 34813 ft 534 kts 22°
2026-04-13 12:42 30.36522 8.33768 34812 ft 535 kts 22°
2026-04-13 12:43 30.42933 8.38129 34800 ft 534 kts 22°
2026-04-13 12:43 30.49290 8.42453 34806 ft 533 kts 22°
2026-04-13 12:44 30.55705 8.46778 34800 ft 533 kts 22°
2026-04-13 12:44 30.62159 8.51136 34804 ft 532 kts 22°
2026-04-13 12:45 30.68522 8.55442 34846 ft 533 kts 22°
2026-04-13 12:45 30.74929 8.59802 34809 ft 534 kts 23°
2026-04-13 12:46 30.81333 8.64176 34806 ft 534 kts 23°
2026-04-13 12:46 30.87738 8.68538 34802 ft 533 kts 22°
2026-04-13 12:47 30.94145 8.72899 34782 ft 533 kts 23°
2026-04-13 12:47 31.00529 8.77258 34807 ft 532 kts 23°
2026-04-13 12:48 31.06914 8.81623 34807 ft 532 kts 23°
2026-04-13 12:48 31.13301 8.86000 34806 ft 532 kts 23°
2026-04-13 12:49 31.19685 8.90373 34802 ft 532 kts 23°
2026-04-13 12:49 31.26063 8.94756 34809 ft 531 kts 23°
2026-04-13 12:50 31.32437 8.99136 34800 ft 531 kts 23°
2026-04-13 12:50 31.38805 9.03519 34799 ft 531 kts 23°
2026-04-13 12:51 31.45170 9.07903 34800 ft 531 kts 23°
2026-04-13 12:51 31.51539 9.12264 34808 ft 529 kts 24°
2026-04-13 12:52 31.57883 9.16647 34800 ft 529 kts 24°
2026-04-13 12:52 31.64225 9.21047 34796 ft 529 kts 24°
2026-04-13 12:53 31.70563 9.25448 34792 ft 529 kts 24°
2026-04-13 12:53 31.76925 9.29788 34810 ft 527 kts 23°
2026-04-13 12:54 31.83282 9.34101 34785 ft 528 kts 24°
2026-04-13 12:54 31.89636 9.38427 34789 ft 528 kts 24°
2026-04-13 12:55 31.95987 9.42766 34787 ft 528 kts 24°
2026-04-13 12:55 32.02333 9.47112 34778 ft 526 kts 24°
2026-04-13 12:56 32.08643 9.51468 34787 ft 526 kts 24°
2026-04-13 12:56 32.14965 9.55811 34784 ft 526 kts 24°
2026-04-13 12:57 32.21288 9.60152 34786 ft 526 kts 24°
2026-04-13 12:57 32.27562 9.64474 34822 ft 524 kts 24°
2026-04-13 12:58 32.33850 9.68805 34787 ft 523 kts 24°
2026-04-13 12:58 32.40136 9.73161 34781 ft 524 kts 24°
2026-04-13 12:59 32.46420 9.77515 34791 ft 523 kts 24°
2026-04-13 12:59 32.52713 9.81850 34810 ft 522 kts 24°
2026-04-13 13:00 32.58982 9.86200 34757 ft 523 kts 25°
2026-04-13 13:00 32.65251 9.90566 34774 ft 523 kts 25°
2026-04-13 13:01 32.71527 9.94929 34774 ft 522 kts 24°
2026-04-13 13:01 32.77798 9.99292 34793 ft 521 kts 25°
2026-04-13 13:02 32.84036 10.03643 34774 ft 520 kts 25°
2026-04-13 13:02 32.90270 10.08001 34766 ft 519 kts 25°
2026-04-13 13:03 32.96495 10.12371 34761 ft 519 kts 25°
2026-04-13 13:03 33.02721 10.16750 34759 ft 519 kts 25°
2026-04-13 13:04 33.08944 10.21129 34725 ft 520 kts 25°
2026-04-13 13:04 33.15177 10.25519 34738 ft 521 kts 25°
2026-04-13 13:05 33.21419 10.29924 34751 ft 522 kts 25°
2026-04-13 13:05 33.27659 10.34338 34768 ft 521 kts 25°
2026-04-13 13:06 33.33837 10.38736 34753 ft 520 kts 25°
2026-04-13 13:06 33.40061 10.43153 34739 ft 520 kts 25°
2026-04-13 13:07 33.46292 10.47567 34739 ft 520 kts 25°
2026-04-13 13:07 33.52516 10.51991 34774 ft 520 kts 25°
2026-04-13 13:08 33.58733 10.56424 34742 ft 519 kts 25°
2026-04-13 13:08 33.64943 10.60871 34796 ft 520 kts 25°
2026-04-13 13:09 33.68052 10.63089 34914 ft 520 kts 25°
2026-04-13 13:09 33.71163 10.65310 35025 ft 520 kts 25°
2026-04-13 13:09 33.74267 10.67536 35150 ft 519 kts 25°
2026-04-13 13:09 33.77369 10.69756 35287 ft 518 kts 25°
2026-04-13 13:10 33.80455 10.71968 35409 ft 516 kts 26°
2026-04-13 13:10 33.83541 10.74188 35534 ft 516 kts 26°
2026-04-13 13:10 33.86601 10.76437 35657 ft 517 kts 29°
2026-04-13 13:10 33.89453 10.79104 35752 ft 522 kts 38°
2026-04-13 13:11 33.94779 10.85051 35745 ft 522 kts 40°
2026-04-13 13:11 34.00072 10.91042 35764 ft 521 kts 40°
2026-04-13 13:12 34.05368 10.96992 35742 ft 520 kts 40°
2026-04-13 13:12 34.10659 11.02951 35743 ft 520 kts 40°
2026-04-13 13:13 34.15957 11.08907 35739 ft 520 kts 40°
2026-04-13 13:13 34.21249 11.14871 35738 ft 520 kts 40°
2026-04-13 13:14 34.26526 11.20847 35750 ft 519 kts 40°
2026-04-13 13:14 34.31743 11.26809 35741 ft 519 kts 40°
2026-04-13 13:15 34.36999 11.32802 35718 ft 518 kts 40°
2026-04-13 13:15 34.42282 11.38736 35736 ft 518 kts 40°
2026-04-13 13:16 34.47575 11.44656 35761 ft 517 kts 40°
2026-04-13 13:16 34.52399 11.48891 35742 ft 507 kts 22°
2026-04-13 13:17 34.55634 11.50506 35741 ft 499 kts 10°
2026-04-13 13:17 34.58989 11.51405 35749 ft 491 kts
2026-04-13 13:17 34.65739 11.52670 35745 ft 491 kts
2026-04-13 13:18 34.72486 11.53973 35758 ft 492 kts
2026-04-13 13:18 34.79248 11.55318 35747 ft 492 kts
2026-04-13 13:19 34.86012 11.56667 35741 ft 493 kts
2026-04-13 13:19 34.92774 11.58013 35740 ft 492 kts
2026-04-13 13:20 34.99537 11.59362 35755 ft 492 kts
2026-04-13 13:20 35.06299 11.60721 35746 ft 492 kts
2026-04-13 13:21 35.13063 11.62076 35744 ft 492 kts
2026-04-13 13:21 35.19779 11.63420 35762 ft 492 kts
2026-04-13 13:22 35.26582 11.64784 35743 ft 492 kts
2026-04-13 13:22 35.33295 11.66133 35744 ft 492 kts
2026-04-13 13:23 35.40047 11.67497 35746 ft 492 kts
2026-04-13 13:23 35.46795 11.68868 35736 ft 492 kts
2026-04-13 13:24 35.53545 11.70236 35742 ft 492 kts
2026-04-13 13:24 35.60297 11.71606 35743 ft 492 kts
2026-04-13 13:25 35.67048 11.72972 35748 ft 492 kts
2026-04-13 13:26 35.77178 11.75040 35744 ft 492 kts
2026-04-13 13:26 35.83937 11.76414 35749 ft 492 kts
2026-04-13 13:27 35.90693 11.77795 35739 ft 492 kts
2026-04-13 13:27 35.91830 11.78027 35743 ft 492 kts
2026-04-13 13:28 36.04181 11.80559 35743 ft 491 kts
2026-04-13 13:28 36.10923 11.81943 35741 ft 491 kts
2026-04-13 13:29 36.17665 11.83329 35765 ft 491 kts
2026-04-13 13:29 36.24398 11.84710 35747 ft 490 kts
2026-04-13 13:30 36.31126 11.86097 35745 ft 490 kts
2026-04-13 13:30 36.37854 11.87494 35743 ft 490 kts
2026-04-13 13:31 36.44580 11.88886 35750 ft 489 kts
2026-04-13 13:31 36.51248 11.90264 35744 ft 489 kts
2026-04-13 13:32 36.57960 11.91665 35750 ft 489 kts
2026-04-13 13:32 36.64672 11.93064 35775 ft 489 kts
2026-04-13 13:33 36.71385 11.94466 35762 ft 489 kts
2026-04-13 13:33 36.78093 11.95872 35761 ft 489 kts
2026-04-13 13:34 36.84815 11.96735 35756 ft 483 kts 357°
2026-04-13 13:34 36.91534 11.97005 35762 ft 482 kts 357°
2026-04-13 13:35 36.98243 11.97277 35753 ft 482 kts 357°
2026-04-13 13:35 37.04955 11.97557 35748 ft 483 kts 357°
2026-04-13 13:36 37.11676 11.97839 35764 ft 483 kts 357°
2026-04-13 13:36 37.18378 11.98120 35747 ft 481 kts 357°
2026-04-13 13:37 37.25072 11.98402 35734 ft 481 kts 357°
2026-04-13 13:37 37.31768 11.98684 35737 ft 481 kts 357°
2026-04-13 13:38 37.38459 11.98964 35751 ft 481 kts 358°
2026-04-13 13:38 37.45147 11.99248 35743 ft 481 kts 358°
2026-04-13 13:39 37.51832 11.99530 35739 ft 481 kts 358°
2026-04-13 13:39 37.58496 11.99422 35754 ft 478 kts 354°
2026-04-13 13:40 37.65149 11.99130 35741 ft 478 kts 354°
2026-04-13 13:40 37.71795 11.98836 35735 ft 478 kts 354°
2026-04-13 13:41 37.78399 11.98546 35733 ft 478 kts 354°
2026-04-13 13:41 37.85045 11.98252 35731 ft 478 kts 354°
2026-04-13 13:42 37.91696 11.97959 35728 ft 478 kts 354°
2026-04-13 13:42 37.98342 11.97667 35730 ft 478 kts 354°
2026-04-13 13:43 38.04985 11.97373 35739 ft 478 kts 354°
2026-04-13 13:43 38.11630 11.97079 35728 ft 477 kts 354°
2026-04-13 13:44 38.18268 11.96785 35721 ft 477 kts 354°
2026-04-13 13:44 38.24912 11.96490 35714 ft 478 kts 354°
2026-04-13 13:45 38.31553 11.96194 35721 ft 477 kts 354°
2026-04-13 13:45 38.38189 11.95899 35711 ft 477 kts 354°
2026-04-13 13:46 38.44830 11.95602 35708 ft 477 kts 354°
2026-04-13 13:46 38.51466 11.95307 35715 ft 477 kts 354°
2026-04-13 13:47 38.58100 11.95009 35705 ft 477 kts 354°
2026-04-13 13:47 38.64736 11.94709 35696 ft 477 kts 354°
2026-04-13 13:48 38.71325 11.94414 35690 ft 477 kts 354°
2026-04-13 13:48 38.77956 11.94114 35696 ft 476 kts 354°
2026-04-13 13:49 38.84580 11.93814 35690 ft 476 kts 354°
2026-04-13 13:49 38.91207 11.93515 35684 ft 476 kts 354°
2026-04-13 13:50 38.97827 11.93215 35687 ft 476 kts 354°
2026-04-13 13:50 39.04445 11.92916 35676 ft 476 kts 354°
2026-04-13 13:51 39.11059 11.92614 35670 ft 475 kts 354°
2026-04-13 13:51 39.17672 11.92312 35665 ft 476 kts 354°
2026-04-13 13:52 39.24281 11.92010 35663 ft 475 kts 354°
2026-04-13 13:52 39.30885 11.91706 35658 ft 475 kts 354°
2026-04-13 13:53 39.37489 11.91404 35653 ft 475 kts 354°
2026-04-13 13:53 39.44092 11.91103 35662 ft 475 kts 354°
2026-04-13 13:54 39.50694 11.90797 35647 ft 475 kts 354°
2026-04-13 13:54 39.57295 11.90493 35647 ft 475 kts 354°
2026-04-13 13:55 39.63900 11.90189 35642 ft 475 kts 354°
2026-04-13 13:55 39.70496 11.89886 35642 ft 474 kts 354°
2026-04-13 13:56 39.77092 11.89580 35634 ft 474 kts 354°
2026-04-13 13:56 39.83680 11.89240 35620 ft 473 kts 352°
2026-04-13 13:56 39.86907 11.88567 35632 ft 467 kts 341°
2026-04-13 13:57 39.89929 11.87129 35628 ft 460 kts 330°
2026-04-13 13:57 39.95566 11.83235 35626 ft 458 kts 327°
2026-04-13 13:58 40.01139 11.79311 35620 ft 458 kts 327°
2026-04-13 13:58 40.06747 11.75359 35620 ft 458 kts 327°
2026-04-13 13:59 40.12370 11.71429 35607 ft 459 kts 327°
2026-04-13 13:59 40.18008 11.67507 35622 ft 459 kts 328°
2026-04-13 14:00 40.23645 11.63570 35612 ft 459 kts 328°
2026-04-13 14:00 40.29297 11.59658 35607 ft 460 kts 328°
2026-04-13 14:01 40.34929 11.55729 35449 ft 455 kts 328°
2026-04-13 14:01 40.37722 11.53769 34616 ft 456 kts 328°
2026-04-13 14:01 40.40528 11.51795 33819 ft 458 kts 327°
2026-04-13 14:01 40.43336 11.49819 32961 ft 458 kts 327°
2026-04-13 14:02 40.46145 11.47839 32072 ft 459 kts 327°
2026-04-13 14:02 40.48966 11.45851 31160 ft 460 kts 327°
2026-04-13 14:02 40.51790 11.43859 30232 ft 461 kts 327°
2026-04-13 14:02 40.54622 11.41860 29228 ft 462 kts 327°
2026-04-13 14:03 40.57451 11.39863 28304 ft 460 kts 327°
2026-04-13 14:03 40.60250 11.37884 27650 ft 453 kts 327°
2026-04-13 14:03 40.62118 11.36562 27280 ft 449 kts 327°
2026-04-13 14:03 40.64854 11.34623 26812 ft 445 kts 327°
2026-04-13 14:04 40.67572 11.32692 26381 ft 442 kts 327°
2026-04-13 14:04 40.70238 11.30800 26006 ft 440 kts 327°
2026-04-13 14:04 40.72918 11.28903 25628 ft 436 kts 328°
2026-04-13 14:04 40.75699 11.27294 25256 ft 438 kts 336°
2026-04-13 14:05 40.78667 11.26310 24895 ft 442 kts 347°
2026-04-13 14:05 40.81743 11.26042 24542 ft 445 kts 358°
2026-04-13 14:05 40.84826 11.26510 24181 ft 448 kts
2026-04-13 14:05 40.87811 11.27705 23828 ft 450 kts 20°
2026-04-13 14:06 40.90593 11.29599 23476 ft 451 kts 31°
2026-04-13 14:06 40.93111 11.32064 23121 ft 450 kts 37°
2026-04-13 14:06 40.95545 11.34650 22713 ft 447 kts 37°
2026-04-13 14:06 40.97970 11.37209 22328 ft 444 kts 37°
2026-04-13 14:07 41.00390 11.39738 21981 ft 441 kts 37°
2026-04-13 14:07 41.02788 11.42229 21607 ft 437 kts 37°
2026-04-13 14:07 41.05167 11.44707 21221 ft 434 kts 37°
2026-04-13 14:07 41.07540 11.47172 20840 ft 431 kts 37°
2026-04-13 14:08 41.09893 11.49608 20459 ft 429 kts 37°
2026-04-13 14:08 41.12235 11.52040 20064 ft 426 kts 37°
2026-04-13 14:08 41.14559 11.54456 19652 ft 423 kts 37°
2026-04-13 14:08 41.16867 11.56861 19242 ft 421 kts 37°
2026-04-13 14:09 41.19159 11.59260 18840 ft 418 kts 38°
2026-04-13 14:09 41.21432 11.61638 18443 ft 415 kts 38°
2026-04-13 14:09 41.23696 11.64001 18045 ft 413 kts 38°
2026-04-13 14:09 41.25939 11.66351 17608 ft 410 kts 38°
2026-04-13 14:10 41.28174 11.68695 17142 ft 410 kts 38°
2026-04-13 14:10 41.30413 11.71034 16681 ft 408 kts 38°
2026-04-13 14:10 41.32632 11.73349 16183 ft 402 kts 38°
2026-04-13 14:10 41.34807 11.75625 15714 ft 394 kts 38°
2026-04-13 14:11 41.36940 11.77850 15252 ft 386 kts 38°
2026-04-13 14:11 41.39195 11.79724 14789 ft 380 kts 25°
2026-04-13 14:11 41.41694 11.80727 14357 ft 373 kts
2026-04-13 14:11 41.44247 11.81095 13954 ft 366 kts
2026-04-13 14:12 41.46765 11.81369 13573 ft 359 kts
2026-04-13 14:12 41.49234 11.81645 13180 ft 354 kts
2026-04-13 14:12 41.51677 11.81931 12769 ft 351 kts
2026-04-13 14:12 41.54102 11.82227 12337 ft 349 kts
2026-04-13 14:13 41.56515 11.82525 11898 ft 347 kts
2026-04-13 14:13 41.58913 11.82823 11457 ft 345 kts
2026-04-13 14:13 41.61295 11.83120 11014 ft 343 kts
2026-04-13 14:14 41.66015 11.83712 10138 ft 339 kts
2026-04-13 14:14 41.68283 11.83996 9731 ft 335 kts
2026-04-13 14:14 41.70588 11.84286 9330 ft 330 kts
2026-04-13 14:14 41.72852 11.84571 8975 ft 324 kts
2026-04-13 14:15 41.75047 11.84847 8637 ft 318 kts
2026-04-13 14:15 41.77233 11.85121 8307 ft 313 kts
2026-04-13 14:15 41.79409 11.85395 7968 ft 308 kts
2026-04-13 14:15 41.81541 11.85663 7649 ft 307 kts
2026-04-13 14:16 41.83663 11.85930 7336 ft 306 kts
2026-04-13 14:16 41.85782 11.86198 7022 ft 305 kts
2026-04-13 14:16 41.87894 11.86466 6709 ft 304 kts
2026-04-13 14:16 41.89966 11.86728 6403 ft 302 kts
2026-04-13 14:17 41.92056 11.86992 6093 ft 301 kts
2026-04-13 14:17 41.94139 11.87255 5762 ft 300 kts
2026-04-13 14:17 41.96214 11.87518 5430 ft 299 kts
2026-04-13 14:17 41.98275 11.87779 5102 ft 297 kts
2026-04-13 14:18 42.00319 11.88037 4790 ft 291 kts
2026-04-13 14:18 42.02297 11.88321 4595 ft 279 kts 14°
2026-04-13 14:18 42.04035 11.89229 4420 ft 259 kts 38°
2026-04-13 14:18 42.05306 11.90805 4240 ft 241 kts 60°
2026-04-13 14:19 42.06052 11.92716 4037 ft 224 kts 78°
2026-04-13 14:19 42.06308 11.94724 3801 ft 214 kts 94°
2026-04-13 14:19 42.06283 11.96715 3612 ft 212 kts 97°
2026-04-13 14:19 42.06241 11.98687 3466 ft 210 kts 97°
2026-04-13 14:20 42.06213 12.00645 3340 ft 209 kts 96°
2026-04-13 14:20 42.06199 12.02601 3212 ft 209 kts 96°
2026-04-13 14:20 42.06190 12.04575 3069 ft 211 kts 96°
2026-04-13 14:20 42.06183 12.06515 2983 ft 206 kts 97°
2026-04-13 14:21 42.05925 12.08364 2854 ft 199 kts 118°
2026-04-13 14:21 42.05275 12.09992 2776 ft 197 kts 123°
2026-04-13 14:21 42.04595 12.11593 2654 ft 197 kts 123°
2026-04-13 14:21 42.03929 12.13201 2605 ft 197 kts 122°
2026-04-13 14:22 42.03269 12.14817 2614 ft 197 kts 122°
2026-04-13 14:22 42.02614 12.16435 2630 ft 197 kts 123°
2026-04-13 14:22 42.01944 12.18031 2640 ft 195 kts 127°
2026-04-13 14:22 42.00963 12.19247 2492 ft 194 kts 152°
2026-04-13 14:23 41.99722 12.19897 2488 ft 186 kts 165°
2026-04-13 14:23 41.98521 12.20323 2475 ft 175 kts 161°
2026-04-13 14:23 41.97356 12.20803 2481 ft 175 kts 161°
2026-04-13 14:23 41.96198 12.21288 2410 ft 170 kts 161°
2026-04-13 14:24 41.95119 12.21741 2273 ft 156 kts 162°
2026-04-13 14:24 41.94108 12.22165 2067 ft 148 kts 162°
2026-04-13 14:24 41.93163 12.22560 1877 ft 138 kts 161°
2026-04-13 14:24 41.92285 12.22929 1685 ft 122 kts 161°
2026-04-13 14:25 41.91504 12.23256 1497 ft 116 kts 161°
2026-04-13 14:25 41.90733 12.23579 1346 ft 117 kts 161°
2026-04-13 14:25 41.89959 12.23904 1193 ft 115 kts 160°
2026-04-13 14:25 41.89198 12.24228 1028 ft 115 kts 160°
2026-04-13 14:26 41.88430 12.24544 852 ft 118 kts 159°
2026-04-13 14:26 41.87631 12.24878 718 ft 120 kts 157°
2026-04-13 14:26 41.86825 12.25203 521 ft 123 kts 157°
2026-04-13 14:26 41.86021 12.25554 369 ft 120 kts 158°
2026-04-13 14:27 41.85230 12.25881 207 ft 117 kts 159°
2026-04-13 14:27 41.84458 12.26208 49 ft 116 kts 160°
2026-04-13 14:27 41.83698 12.26524 85 ft 124 kts 160°
2026-04-13 14:27 41.82858 12.26886 1024 ft 126 kts 159°
2026-04-13 14:28 41.82218 12.27646 1332 ft 141 kts 116°
2026-04-13 14:28 41.82035 12.28999 1797 ft 159 kts 93°
2026-04-13 14:28 41.82540 12.30428 2314 ft 182 kts 61°
2026-04-13 14:28 41.83280 12.31861 2936 ft 195 kts 60°
2026-04-13 14:29 41.84384 12.33058 3605 ft 214 kts 36°
2026-04-13 14:29 41.85744 12.34032 3947 ft 227 kts 28°
2026-04-13 14:29 41.87233 12.34780 4015 ft 228 kts 24°
2026-04-13 14:29 41.88752 12.35494 4032 ft 245 kts 24°
2026-04-13 14:30 41.90396 12.36160 3994 ft 250 kts
2026-04-13 14:30 41.92138 12.35969 3989 ft 255 kts 346°
2026-04-13 14:30 41.93859 12.35359 3997 ft 256 kts 344°
2026-04-13 14:30 41.95567 12.34698 3971 ft 255 kts 344°
2026-04-13 14:31 41.97265 12.33988 3959 ft 255 kts 344°
2026-04-13 14:31 41.98912 12.33123 3832 ft 253 kts 335°
2026-04-13 14:31 42.00504 12.32092 3521 ft 254 kts 334°
2026-04-13 14:31 42.02083 12.31034 3200 ft 252 kts 330°
2026-04-13 14:32 42.03383 12.29511 2883 ft 247 kts 302°
2026-04-13 14:32 42.04056 12.27484 2617 ft 231 kts 275°
2026-04-13 14:32 42.04073 12.25436 2454 ft 207 kts 250°
2026-04-13 14:32 42.03586 12.23689 2437 ft 196 kts 233°
2026-04-13 14:33 42.02888 12.22128 2458 ft 196 kts 231°
2026-04-13 14:33 42.02152 12.20578 2465 ft 195 kts 221°
2026-04-13 14:33 42.01087 12.19599 2462 ft 182 kts 188°
2026-04-13 14:33 41.99866 12.19621 2475 ft 175 kts 165°
2026-04-13 14:34 41.98716 12.20074 2473 ft 171 kts 160°
2026-04-13 14:34 41.97598 12.20599 2468 ft 170 kts 160°
2026-04-13 14:34 41.96482 12.21112 2429 ft 165 kts 159°
2026-04-13 14:34 41.95440 12.21594 2347 ft 154 kts 162°
2026-04-13 14:35 41.94434 12.22025 2147 ft 149 kts 162°
2026-04-13 14:35 41.93464 12.22433 1936 ft 142 kts 162°
2026-04-13 14:35 41.92550 12.22818 1733 ft 134 kts 161°
2026-04-13 14:35 41.91719 12.23166 1552 ft 117 kts 161°
2026-04-13 14:36 41.90951 12.23488 1380 ft 115 kts 160°
2026-04-13 14:36 41.90186 12.23809 1218 ft 115 kts 160°
2026-04-13 14:36 41.89423 12.24128 1067 ft 114 kts 160°